Flight Track Log - Related Links

Times and Time Zones

All times are in EDT time to prevent confusion due to time zone crossing. See the ASH3780 flight status page for this flight to view local times or setup timezone preferences in your user account.

Time Position Orientation Groundspeed Altitude Reporting Facility
EDT Latitude Longitude Course Direction KTS MPH feet Rate Location/Type
Thu 08:30:48 AM 38.9833 -77.4500 322° Northwest 193 222 2,600  Level Potomac TRACON
Thu 08:31:48 AM 39.0333 -77.5000 322° Northwest 255 293 5,100 2,690 Climbing Potomac TRACON
Thu 08:34:11 AM 39.1903 -77.6189 330° Northwest 295 339 11,700 2,529 Climbing Washington Center
Thu 08:35:12 AM 39.2789 -77.6803 332° Northwest 323 372 13,700 1,950 Climbing Washington Center
Thu 08:36:11 AM 39.3714 -77.7447 332° Northwest 356 410 15,600 2,034 Climbing Washington Center
Thu 08:37:10 AM 39.4722 -77.8150 332° Northwest 385 443 17,700 1,700 Climbing Washington Center
Thu 08:38:11 AM 39.5561 -77.9089 319° Northwest 397 457 19,000 1,131 Climbing Washington Center
Thu 08:39:12 AM 39.5967 -78.0583 289° West 398 458 20,000 556 Climbing Washington Center
Thu 08:39:59 AM 39.6442 -78.2025 293° West 432 497 20,000 449 Level Cleveland Center
Thu 08:40:59 AM 39.6867 -78.3547 290° West 454 522 20,800 1,300 Climbing Cleveland Center
Thu 08:41:59 AM 39.7333 -78.5072 292° West 454 522 22,600 1,450 Climbing Cleveland Center
Thu 08:42:59 AM 39.7778 -78.6625 290° West 459 528 23,700 1,050 Climbing Cleveland Center
Thu 08:43:59 AM 39.8158 -78.8128 288° West 467 537 24,700 1,200 Climbing Cleveland Center
Thu 08:44:59 AM 39.8639 -78.9739 291° West 472 543 26,100 1,400 Climbing Cleveland Center
Thu 08:45:59 AM 39.9142 -79.1350 292° West 477 549 27,500 950 Climbing Cleveland Center
Thu 08:46:59 AM 39.9578 -79.2967 289° West 482 555 28,000 250 Climbing Cleveland Center
Thu 08:47:59 AM 40.0239 -79.4497 299° West 487 560 28,000 50 Level Cleveland Center
Thu 08:48:59 AM 40.0983 -79.5953 304° West 482 555 28,100  Climbing Cleveland Center
Thu 08:49:59 AM 40.1725 -79.7408 304° West 482 555 28,000 -50 Descending Cleveland Center
Thu 08:50:59 AM 40.2464 -79.8842 304° West 482 555 28,000  Level Cleveland Center
Thu 08:51:59 AM 40.3181 -80.0275 303° West 476 548 28,000  Level Cleveland Center
Thu 08:52:59 AM 40.3894 -80.1769 302° West 476 548 28,000  Level Cleveland Center
Thu 08:53:59 AM 40.4631 -80.3211 304° West 476 548 28,000  Level Cleveland Center
Thu 08:54:59 AM 40.5444 -80.4792 304° West 476 548 28,000  Level Cleveland Center
Thu 08:55:59 AM 40.6153 -80.6242 303° West 481 554 28,000  Level Cleveland Center
Thu 08:56:59 AM 40.6883 -80.7692 304° West 475 547 28,000  Level Cleveland Center
Thu 08:57:59 AM 40.7608 -80.9147 303° West 475 547 28,000  Level Cleveland Center
Thu 08:58:59 AM 40.8311 -81.0633 302° West 475 547 28,000  Level Cleveland Center
Thu 08:59:59 AM 40.9014 -81.2094 303° West 475 547 28,000  Level Cleveland Center
Thu 09:00:59 AM 40.9797 -81.3531 306° West 475 547 28,000  Level Cleveland Center
Thu 09:01:59 AM 41.0536 -81.4944 305° West 480 552 28,000  Level Cleveland Center
Thu 09:02:59 AM 41.1297 -81.6361 306° West 480 552 28,000  Level Cleveland Center
Thu 09:03:59 AM 41.2094 -81.7783 307° West 480 552 28,000  Level Cleveland Center
Thu 09:04:59 AM 41.2831 -81.9206 305° West 480 552 28,000 -1,250 Level Cleveland Center
Thu 09:05:59 AM 41.3583 -82.0686 304° West 475 547 25,500 -2,650 Descending Cleveland Center
Thu 09:06:59 AM 41.4272 -82.2031 304° West 464 534 22,700 -2,800 Descending Cleveland Center
Thu 09:07:59 AM 41.4942 -82.3325 305° West 444 511 19,900 -2,650 Descending Cleveland Center
Thu 09:08:59 AM 41.5589 -82.4561 305° West 427 491 17,400 -2,651 Descending Cleveland Center
Thu 09:09:25 AM 41.5894 -82.5128 306° West 400 460 16,100 -2,800 Descending Cleveland Center
Thu 09:09:59 AM 41.6214 -82.5803 302° West 415 478 14,600 -2,489 Descending Cleveland Center
Thu 09:10:59 AM 41.6739 -82.6819 305° West 390 449 12,200 -1,300 Descending Cleveland Center
Thu 09:11:59 AM 41.7406 -82.7983 308° West 390 449 12,000 -100 Descending Cleveland Center
Thu 09:12:59 AM 41.8219 -82.8958 318° Northwest 385 443 12,000  Level Cleveland Center
Thu 09:13:59 AM 41.9053 -82.9964 318° Northwest 395 455 12,000  Level Cleveland Center
Thu 09:15:07 AM 42.0111 -83.1236 318° Northwest 393 452 12,000  Level Cleveland Center
Thu 09:15:59 AM 42.0578 -83.1814 317° Northwest 381 438 12,000  Level Cleveland Center
Thu 09:16:59 AM 42.1256 -83.2261 334° Northwest 292 336 12,000 -2,500 Level Cleveland Center
Thu 09:17:59 AM 42.1942 -83.2317 357° North 244 281 7,000 -4,105 Descending Cleveland Center
Thu 09:18:15 AM 42.2153 -83.2242 15° North 228 262 6,800 -1,700 Descending Cleveland Center
Thu 09:18:59 AM 42.2511 -83.2061 20° North 232 267 5,300 -1,966 Descending Cleveland Center
Thu 09:20:11 AM 42.3192 -83.2314 345° North 205 236 3,000 -1,218 Descending Cleveland Center
Thu 09:21:12 AM 42.2972 -83.2836 240° Southwest 179 206 2,600 -738 Descending Cleveland Center
Thu 09:22:13 AM 42.2653 -83.3133 215° Southwest 126 145 1,500 -893 Descending Cleveland Center
Thu 09:23:13 AM 42.2314 -83.3342 204° Southwest 132 152 800 -700 Descending Cleveland Center
Thu 09:25:00 AM 42.2124 -83.3534 220° Southwest  Level Estimated

Login

Don't have an account? Register now (free) for customized features, flight alerts, and more!